Time;durP1;ratioP1;P1;durP2;ratioP2;P2;SDS_P1;SDS_P2;PMS_P1;PMS_P2;Temp;Humidity;BMP_temperature;BMP_pressure;BME280_temperature;BME280_humidity;BME280_pressure;Samples;Min_cycle;Max_cycle;Signal;HPM_P1;HPM_P2
2022/01/04 00:01:09;;;;;;;10.50;2.22;;;25.90;99.50;;;;;;4959954;28;20510;-71
2022/01/04 00:03:36;;;;;;;13.50;3.22;;;26.10;99.50;;;;;;4963317;28;20019;-72
2022/01/04 00:06:03;;;;;;;12.70;3.38;;;26.20;99.40;;;;;;4960815;28;20034;-73
2022/01/04 00:08:30;;;;;;;14.07;2.92;;;26.30;98.80;;;;;;4963078;28;20033;-73
2022/01/04 00:11:07;;;;;;;15.98;2.35;;;26.30;98.90;;;;;;4962425;28;20019;-73
2022/01/04 00:13:35;;;;;;;13.95;3.10;;;26.40;98.80;;;;;;4960422;28;20121;-71
2022/01/04 00:16:03;;;;;;;11.38;2.30;;;26.30;98.60;;;;;;4963163;28;20023;-72
2022/01/04 00:18:30;;;;;;;14.40;3.35;;;26.40;98.60;;;;;;4962991;28;20031;-73
2022/01/04 00:20:58;;;;;;;12.65;2.90;;;26.30;98.50;;;;;;4961166;28;20054;-71
2022/01/04 00:23:25;;;;;;;10.80;2.45;;;26.30;99.00;;;;;;4965155;28;20027;-73
2022/01/04 00:25:52;;;;;;;8.65;2.05;;;26.30;99.10;;;;;;4963559;28;20511;-72
2022/01/04 00:28:20;;;;;;;10.00;2.90;;;26.40;99.10;;;;;;4966299;28;20035;-73
2022/01/04 00:30:48;;;;;;;13.25;3.00;;;26.50;98.90;;;;;;4963546;28;20625;-76
2022/01/04 00:33:17;;;;;;;14.93;2.65;;;26.60;98.50;;;;;;4964768;28;20098;-73
2022/01/04 00:35:45;;;;;;;13.10;3.45;;;26.70;98.00;;;;;;4960969;28;20027;-72
2022/01/04 00:38:12;;;;;;;8.57;2.17;;;26.90;97.60;;;;;;4966745;28;20026;-75
2022/01/04 00:40:40;;;;;;;8.60;2.00;;;27.20;96.50;;;;;;4964304;28;20383;-72
2022/01/04 00:43:07;;;;;;;11.73;1.98;;;27.50;96.40;;;;;;4968614;28;20483;-72
2022/01/04 00:45:37;;;;;;;10.55;2.38;;;27.50;95.40;;;;;;4969653;28;20031;-73
2022/01/04 00:50:38;;;;;;;13.02;2.38;;;27.40;95.30;;;;;;4963034;28;20030;-71
2022/01/04 00:53:07;;;;;;;12.05;2.15;;;27.50;94.50;;;;;;4969519;28;20171;-70
2022/01/04 00:55:34;;;;;;;11.13;2.35;;;27.50;95.40;;;;;;4962400;28;20031;-71
2022/01/04 00:58:03;;;;;;;15.70;3.28;;;27.50;95.70;;;;;;4965353;28;20673;-71
2022/01/04 01:00:31;;;;;;;12.07;2.47;;;27.60;95.20;;;;;;4965165;28;20512;-70
2022/01/04 01:02:59;;;;;;;14.75;2.90;;;27.60;94.50;;;;;;4963526;28;20086;-71
2022/01/04 01:05:26;;;;;;;14.65;2.45;;;27.70;94.70;;;;;;4968478;28;20065;-73
2022/01/04 01:07:55;;;;;;;9.25;1.88;;;27.70;94.60;;;;;;4969832;28;20035;-72
2022/01/04 01:11:07;;;;;;;7.70;1.98;;;27.70;94.40;;;;;;4968946;28;20372;-72
2022/01/04 01:13:15;;;;;;;13.65;3.65;;;28.00;94.00;;;;;;4963140;28;20054;-77
2022/01/04 01:15:44;;;;;;;9.82;2.10;;;28.10;92.80;;;;;;4969625;28;20038;-75
2022/01/04 01:18:13;;;;;;;9.38;1.52;;;28.10;92.50;;;;;;4969251;28;20015;-71
2022/01/04 01:20:41;;;;;;;9.70;1.50;;;28.10;91.10;;;;;;4968738;28;20041;-75
2022/01/04 01:23:08;;;;;;;7.85;1.70;;;28.20;91.20;;;;;;4968408;28;21261;-74
2022/01/04 01:25:36;;;;;;;12.95;2.70;;;28.20;90.30;;;;;;4969746;28;20078;-73
2022/01/04 01:28:03;;;;;;;12.75;2.65;;;28.20;90.10;;;;;;4985732;28;20038;-77
2022/01/04 01:30:35;;;;;;;11.25;2.22;;;28.40;91.10;;;;;;4992252;28;20097;-74
2022/01/04 01:33:02;;;;;;;12.75;2.40;;;28.30;91.00;;;;;;4973326;28;20027;-74
2022/01/04 01:35:30;;;;;;;11.52;2.45;;;28.20;91.30;;;;;;4973955;28;20109;-75
2022/01/04 01:37:59;;;;;;;11.18;2.38;;;28.10;92.30;;;;;;4973973;28;20420;-74
2022/01/04 01:40:26;;;;;;;11.32;2.33;;;28.00;92.90;;;;;;4968303;28;20113;-77
2022/01/04 01:42:55;;;;;;;11.23;2.80;;;27.90;92.90;;;;;;4964949;28;20030;-75
2022/01/04 01:45:23;;;;;;;11.75;2.20;;;27.90;93.10;;;;;;4967967;28;20858;-74
2022/01/04 01:47:51;;;;;;;9.30;2.35;;;27.60;93.50;;;;;;4968800;28;20027;-77
2022/01/04 01:50:21;;;;;;;10.00;2.38;;;27.50;94.00;;;;;;4971013;28;20073;-73
2022/01/04 01:52:50;;;;;;;10.07;2.17;;;27.50;94.10;;;;;;4972801;28;20022;-75
2022/01/04 01:55:21;;;;;;;10.80;2.17;;;27.60;94.30;;;;;;4974010;28;20097;-74
2022/01/04 01:57:49;;;;;;;9.75;1.85;;;27.60;94.00;;;;;;4974200;28;20027;-74
2022/01/04 02:00:19;;;;;;;9.15;2.10;;;27.70;93.80;;;;;;4973918;28;20038;-73
2022/01/04 02:02:47;;;;;;;12.18;2.40;;;27.60;94.10;;;;;;4974244;28;20054;-74
2022/01/04 02:05:14;;;;;;;9.82;2.03;;;27.70;94.00;;;;;;4973863;28;20035;-75
2022/01/04 02:07:44;;;;;;;11.85;2.60;;;27.90;93.60;;;;;;4974072;28;20105;-75
2022/01/04 02:10:12;;;;;;;14.43;2.50;;;27.90;93.70;;;;;;4973053;28;20468;-74
2022/01/04 02:12:40;;;;;;;13.70;2.28;;;27.90;93.90;;;;;;4981112;28;20550;-74
2022/01/04 02:15:11;;;;;;;14.52;2.28;;;27.80;94.10;;;;;;4993070;28;20386;-77
2022/01/04 02:17:39;;;;;;;14.52;2.17;;;27.80;94.20;;;;;;4992622;28;20530;-74
2022/01/04 02:20:08;;;;;;;15.18;2.42;;;27.70;94.10;;;;;;4992386;28;20475;-76
2022/01/04 02:22:36;;;;;;;12.50;2.50;;;27.60;94.40;;;;;;4977877;28;20038;-78
2022/01/04 02:25:04;;;;;;;11.45;2.00;;;27.70;94.20;;;;;;4972893;28;20121;-74
2022/01/04 02:27:34;;;;;;;12.68;3.60;;;27.70;94.40;;;;;;4973078;28;20030;-75
2022/01/04 02:30:02;;;;;;;8.85;1.52;;;27.60;93.80;;;;;;4972929;28;20042;-78
2022/01/04 02:32:30;;;;;;;10.82;2.00;;;27.60;93.80;;;;;;4972959;28;20026;-75
2022/01/04 02:34:57;;;;;;;20.05;2.58;;;27.80;93.80;;;;;;4973777;28;20034;-77
2022/01/04 02:37:26;;;;;;;12.90;2.70;;;27.90;93.80;;;;;;4973226;28;20161;-74
2022/01/04 02:39:54;;;;;;;14.75;3.00;;;27.90;93.20;;;;;;4973478;28;20086;-75
2022/01/04 02:42:23;;;;;;;13.48;3.15;;;27.90;93.70;;;;;;4974147;28;20018;-77
2022/01/04 02:44:51;;;;;;;13.82;2.35;;;28.30;93.40;;;;;;4973545;28;20026;-77
2022/01/04 02:47:18;;;;;;;11.02;1.80;;;28.90;92.90;;;;;;4971908;28;20125;-78
2022/01/04 02:49:46;;;;;;;11.68;2.30;;;29.40;92.30;;;;;;4972871;28;20025;-76
2022/01/04 02:52:13;;;;;;;16.73;3.25;;;29.90;92.00;;;;;;4973430;28;20510;-75
2022/01/04 02:54:41;;;;;;;10.38;2.75;;;30.50;90.80;;;;;;4972517;28;20078;-75
2022/01/04 02:57:12;;;;;;;14.25;2.72;;;30.80;89.30;;;;;;4973980;28;20033;-74
2022/01/04 02:59:39;;;;;;;13.38;2.00;;;31.10;89.40;;;;;;4972852;28;20679;-75
2022/01/04 03:02:06;;;;;;;12.23;2.53;;;30.90;88.80;;;;;;4973226;28;20034;-73
2022/01/04 03:04:33;;;;;;;9.35;2.33;;;30.90;88.70;;;;;;4973963;28;20019;-76
2022/01/04 03:07:02;;;;;;;11.02;2.55;;;31.10;87.70;;;;;;4972980;28;20022;-73
2022/01/04 03:09:30;;;;;;;10.70;2.10;;;31.30;86.90;;;;;;4993236;28;20076;-74
2022/01/04 03:11:57;;;;;;;10.90;2.10;;;31.80;86.00;;;;;;4993027;28;20411;-73
2022/01/04 03:14:24;;;;;;;8.73;1.90;;;32.10;84.70;;;;;;4992370;28;20510;-74
2022/01/04 03:16:52;;;;;;;9.38;2.50;;;32.30;83.70;;;;;;4992553;28;20085;-74
2022/01/04 03:19:19;;;;;;;11.27;1.80;;;32.60;82.20;;;;;;4972975;28;20027;-74
2022/01/04 03:21:46;;;;;;;10.55;2.08;;;32.20;81.40;;;;;;4972585;28;20019;-73
2022/01/04 03:24:15;;;;;;;6.03;1.63;;;31.70;82.60;;;;;;4971409;28;20049;-73
2022/01/04 03:26:43;;;;;;;10.18;2.20;;;31.90;83.20;;;;;;4972844;28;21023;-73
2022/01/04 03:29:13;;;;;;;5.28;1.20;;;32.00;81.90;;;;;;4972479;28;20127;-75
2022/01/04 03:31:41;;;;;;;11.40;2.05;;;31.60;82.30;;;;;;4986991;28;20023;-76
2022/01/04 03:34:09;;;;;;;9.55;2.13;;;31.50;82.80;;;;;;4991691;28;20038;-73
2022/01/04 03:36:37;;;;;;;6.03;1.35;;;31.90;82.60;;;;;;4992584;28;20025;-72
2022/01/04 03:39:07;;;;;;;8.85;1.90;;;32.60;81.30;;;;;;4974085;28;20395;-74
2022/01/04 03:41:39;;;;;;;8.48;1.50;;;32.80;79.20;;;;;;4965062;28;20070;-72
2022/01/04 03:44:18;;;;;;;9.23;1.85;;;32.60;79.50;;;;;;4968356;28;20023;-72
2022/01/04 03:46:50;;;;;;;11.50;1.58;;;32.30;79.90;;;;;;4968000;28;20023;-72
2022/01/04 03:49:18;;;;;;;9.88;2.50;;;31.90;80.00;;;;;;4967224;28;20561;-73
2022/01/04 03:51:45;;;;;;;11.18;2.30;;;31.20;82.10;;;;;;4966383;28;20467;-73
2022/01/04 03:54:14;;;;;;;9.18;2.00;;;30.80;83.90;;;;;;4968190;28;20400;-72
2022/01/04 03:56:41;;;;;;;9.65;2.58;;;30.30;85.30;;;;;;4971971;28;20034;-73
2022/01/04 03:59:08;;;;;;;14.38;1.95;;;30.70;85.40;;;;;;4971442;28;20030;-74
2022/01/04 04:01:36;;;;;;;10.85;1.67;;;31.00;84.90;;;;;;4971323;28;20027;-74
2022/01/04 04:04:03;;;;;;;13.57;2.25;;;30.80;86.20;;;;;;4971232;28;20121;-75
2022/01/04 04:06:30;;;;;;;15.43;3.05;;;30.50;86.90;;;;;;4970693;28;20109;-76
2022/01/04 04:08:57;;;;;;;10.00;2.05;;;30.50;87.50;;;;;;4970993;28;20104;-76
2022/01/04 04:11:28;;;;;;;10.50;1.70;;;30.40;87.60;;;;;;4971072;28;20835;-76
2022/01/04 04:13:55;;;;;;;11.23;2.17;;;30.10;88.10;;;;;;4971021;28;20041;-72
2022/01/04 04:16:22;;;;;;;13.55;2.58;;;29.80;87.40;;;;;;4970963;28;20058;-74
2022/01/04 04:18:50;;;;;;;8.00;1.70;;;29.50;88.10;;;;;;4970554;28;20023;-76
2022/01/04 04:21:17;;;;;;;10.13;2.28;;;29.00;88.20;;;;;;4970629;28;20035;-75
2022/01/04 04:23:44;;;;;;;9.80;2.20;;;28.80;89.00;;;;;;4971002;28;20043;-76
2022/01/04 04:26:12;;;;;;;14.82;2.47;;;28.60;90.20;;;;;;4969444;28;20038;-74
2022/01/04 04:28:39;;;;;;;11.50;2.15;;;28.50;90.50;;;;;;4971239;28;20019;-77
2022/01/04 04:31:06;;;;;;;12.57;3.13;;;28.60;90.10;;;;;;4970749;28;20035;-77
2022/01/04 04:33:34;;;;;;;13.25;2.10;;;28.50;90.00;;;;;;4972037;28;20043;-74
2022/01/04 04:36:02;;;;;;;7.28;1.83;;;28.50;90.60;;;;;;4972667;28;20033;-75
2022/01/04 04:38:29;;;;;;;11.25;1.58;;;28.50;90.70;;;;;;4971455;28;20085;-72
2022/01/04 04:40:56;;;;;;;12.95;2.20;;;28.50;90.60;;;;;;4972030;28;20027;-74
2022/01/04 04:43:25;;;;;;;9.05;1.63;;;28.80;89.60;;;;;;4971198;28;20135;-75
2022/01/04 04:45:52;;;;;;;10.35;1.73;;;28.90;89.50;;;;;;4970991;28;20049;-76
2022/01/04 04:48:19;;;;;;;8.90;2.13;;;29.40;89.00;;;;;;4970264;28;20033;-74
2022/01/04 04:50:47;;;;;;;6.97;1.23;;;29.70;85.80;;;;;;4969499;28;20061;-75
2022/01/04 04:53:14;;;;;;;10.93;1.20;;;29.90;85.20;;;;;;4970043;28;20059;-72
2022/01/04 04:55:41;;;;;;;7.00;1.40;;;29.70;86.10;;;;;;4970110;28;20065;-72
2022/01/04 04:58:10;;;;;;;6.50;1.20;;;29.70;85.80;;;;;;4969838;28;20031;-69
2022/01/04 05:00:38;;;;;;;9.30;1.52;;;29.80;84.90;;;;;;4969961;28;20058;-70
2022/01/04 05:03:05;;;;;;;6.95;1.92;;;29.90;86.10;;;;;;4969484;28;20121;-72
2022/01/04 05:05:32;;;;;;;7.47;1.40;;;30.80;84.70;;;;;;4969405;28;20081;-70
2022/01/04 05:08:00;;;;;;;6.68;1.33;;;31.80;81.30;;;;;;4969910;28;20062;-71
2022/01/04 05:10:27;;;;;;;5.85;2.20;;;32.50;79.50;;;;;;4969957;28;20061;-71
2022/01/04 05:12:54;;;;;;;6.93;1.23;;;32.20;80.10;;;;;;4969928;28;20721;-73
2022/01/04 05:15:22;;;;;;;6.75;1.33;;;31.80;81.20;;;;;;4969362;28;20109;-73
2022/01/04 05:17:49;;;;;;;8.48;1.65;;;31.80;80.70;;;;;;4969507;28;20054;-73
2022/01/04 05:20:16;;;;;;;10.55;1.90;;;31.80;80.50;;;;;;4969371;28;20035;-71
2022/01/04 05:22:44;;;;;;;8.07;1.80;;;32.10;81.70;;;;;;4970012;28;20504;-72
2022/01/04 05:25:11;;;;;;;12.80;1.40;;;32.90;79.40;;;;;;4969416;28;20050;-72
2022/01/04 05:27:38;;;;;;;6.53;2.00;;;33.20;78.10;;;;;;4969331;28;20491;-71
2022/01/04 05:30:06;;;;;;;10.13;1.73;;;33.10;77.50;;;;;;4969235;28;20034;-71
2022/01/04 05:32:34;;;;;;;6.22;1.48;;;32.50;78.40;;;;;;4969265;28;20027;-71
2022/01/04 05:35:01;;;;;;;8.25;1.50;;;32.30;78.60;;;;;;4969283;28;20077;-72
2022/01/04 05:37:29;;;;;;;7.68;1.88;;;31.50;80.40;;;;;;4969178;28;20046;-72
2022/01/04 05:39:56;;;;;;;5.63;1.38;;;31.30;81.50;;;;;;4968554;28;20026;-72
2022/01/04 05:42:23;;;;;;;6.68;1.30;;;31.50;81.20;;;;;;4969332;28;20030;-70
2022/01/04 05:44:51;;;;;;;4.82;1.10;;;32.00;79.80;;;;;;4968959;28;20448;-72
2022/01/04 05:47:18;;;;;;;10.10;1.48;;;32.50;78.50;;;;;;4968964;28;20030;-72
2022/01/04 05:49:45;;;;;;;5.80;1.13;;;32.30;77.10;;;;;;4969367;28;20118;-73
2022/01/04 05:52:13;;;;;;;8.40;2.25;;;31.80;78.50;;;;;;4969952;28;20062;-72
2022/01/04 05:54:41;;;;;;;8.43;1.50;;;31.70;78.90;;;;;;4971833;28;20046;-73
2022/01/04 05:57:09;;;;;;;8.80;2.55;;;31.30;79.80;;;;;;4972941;28;20093;-71
2022/01/04 05:59:36;;;;;;;8.88;1.45;;;31.20;80.60;;;;;;4974355;28;20023;-72
2022/01/04 06:02:04;;;;;;;7.00;1.17;;;30.90;80.80;;;;;;4973380;28;20073;-72
2022/01/04 06:04:31;;;;;;;8.45;1.42;;;30.50;81.70;;;;;;4966971;28;20073;-71
2022/01/04 06:06:59;;;;;;;7.47;1.65;;;30.20;82.50;;;;;;4969232;28;20033;-73
2022/01/04 06:09:38;;;;;;;8.15;1.30;;;30.40;82.50;;;;;;4969027;28;20031;-71
2022/01/04 06:14:50;;;;;;;9.77;2.85;;;30.40;81.50;;;;;;4969082;28;20399;-73
2022/01/04 06:14:54;;;;;;;6.90;1.13;;;30.40;82.10;;;;;;4969551;28;20487;-71
2022/01/04 06:17:32;;;;;;;13.38;4.85;;;30.30;82.40;;;;;;4967339;28;20029;-73
2022/01/04 06:20:00;;;;;;;5.85;1.90;;;30.50;80.50;;;;;;4970275;28;20424;-71
2022/01/04 06:22:28;;;;;;;9.15;1.83;;;30.30;81.60;;;;;;4970095;28;20110;-71
2022/01/04 06:24:56;;;;;;;8.18;2.25;;;30.30;81.90;;;;;;4967834;28;20042;-71
2022/01/04 06:27:24;;;;;;;6.43;1.40;;;30.50;81.10;;;;;;4969091;28;20117;-72
2022/01/04 06:29:52;;;;;;;9.32;1.55;;;30.60;80.50;;;;;;4969593;28;20033;-73
2022/01/04 06:32:19;;;;;;;5.47;1.17;;;30.80;78.90;;;;;;4969742;28;20081;-71
2022/01/04 06:34:46;;;;;;;10.82;1.58;;;30.80;80.30;;;;;;4968823;28;20047;-73
2022/01/04 06:37:14;;;;;;;7.78;1.60;;;30.80;79.30;;;;;;4969913;28;20074;-72
2022/01/04 06:39:42;;;;;;;4.68;1.25;;;30.90;79.20;;;;;;4966103;28;20030;-75
2022/01/04 06:42:14;;;;;;;8.38;1.35;;;31.00;78.40;;;;;;4969565;28;20487;-72
2022/01/04 06:44:43;;;;;;;5.75;1.35;;;31.10;77.70;;;;;;4969153;28;20030;-72
2022/01/04 06:47:11;;;;;;;4.40;1.00;;;31.20;78.50;;;;;;4969158;28;20037;-72
2022/01/04 06:49:39;;;;;;;7.20;1.30;;;31.10;78.10;;;;;;4968333;28;20161;-71
2022/01/04 06:52:06;;;;;;;5.53;1.02;;;30.80;79.50;;;;;;4968740;28;20085;-74
2022/01/04 06:54:34;;;;;;;8.55;1.50;;;30.70;79.60;;;;;;4968358;28;20035;-72
2022/01/04 06:57:01;;;;;;;6.85;1.27;;;30.70;79.90;;;;;;4969134;28;20015;-73
2022/01/04 06:59:29;;;;;;;4.80;1.25;;;30.60;79.90;;;;;;4968805;28;20042;-73
2022/01/04 07:01:56;;;;;;;6.63;1.00;;;30.70;79.10;;;;;;4967048;28;20496;-73
2022/01/04 07:04:23;;;;;;;6.32;1.30;;;30.50;79.50;;;;;;4968393;28;20542;-72
2022/01/04 07:06:51;;;;;;;8.02;1.02;;;30.40;79.90;;;;;;4969105;28;20034;-71
2022/01/04 07:09:18;;;;;;;7.90;1.70;;;30.30;79.70;;;;;;4968747;28;20057;-73
2022/01/04 07:11:45;;;;;;;5.65;1.42;;;30.30;80.60;;;;;;4969891;28;20109;-77
2022/01/04 07:14:13;;;;;;;8.00;1.80;;;30.20;80.90;;;;;;4968697;28;20030;-72
2022/01/04 07:16:40;;;;;;;7.18;1.00;;;30.10;81.40;;;;;;4968445;28;20492;-72
2022/01/04 07:19:07;;;;;;;5.38;1.05;;;30.00;81.80;;;;;;4968293;28;20031;-72
2022/01/04 07:21:36;;;;;;;7.32;1.75;;;29.90;82.20;;;;;;4968058;28;20022;-72
2022/01/04 07:24:05;;;;;;;6.57;1.27;;;29.90;82.90;;;;;;4967908;28;20105;-72
2022/01/04 07:26:32;;;;;;;8.10;1.10;;;29.90;82.70;;;;;;4966914;28;20030;-71
2022/01/04 07:28:59;;;;;;;5.10;1.00;;;29.90;83.20;;;;;;4968177;28;20039;-71
2022/01/04 07:31:27;;;;;;;5.05;0.93;;;30.00;83.10;;;;;;4971980;28;20030;-71
2022/01/04 07:33:57;;;;;;;5.50;1.08;;;29.90;83.10;;;;;;4972222;28;20038;-73
2022/01/04 07:36:25;;;;;;;6.47;0.82;;;29.90;83.50;;;;;;4976217;28;20030;-72
2022/01/04 07:38:53;;;;;;;8.38;1.70;;;29.80;83.70;;;;;;4975154;28;20027;-72
2022/01/04 07:41:20;;;;;;;5.63;1.50;;;29.60;84.50;;;;;;4969579;28;20049;-72
2022/01/04 07:43:48;;;;;;;6.25;1.33;;;29.30;86.00;;;;;;4970264;28;20458;-73
2022/01/04 07:46:15;;;;;;;5.75;0.90;;;29.20;85.30;;;;;;4971946;28;20438;-71
2022/01/04 07:48:42;;;;;;;9.18;1.85;;;29.10;85.70;;;;;;4972451;28;20023;-72
2022/01/04 07:51:11;;;;;;;4.28;1.00;;;29.10;85.90;;;;;;4959477;28;20101;-75
2022/01/04 07:53:38;;;;;;;9.48;1.80;;;28.80;86.80;;;;;;4970506;28;20569;-73
2022/01/04 07:56:06;;;;;;;7.60;1.40;;;28.80;87.00;;;;;;4971827;28;20039;-72
2022/01/04 07:58:33;;;;;;;4.18;1.00;;;28.60;86.60;;;;;;4970810;28;20373;-72
2022/01/04 08:01:00;;;;;;;6.22;1.10;;;28.60;85.90;;;;;;4971857;28;20069;-75
2022/01/04 08:03:28;;;;;;;6.95;1.08;;;28.50;86.20;;;;;;4972133;28;20034;-72
2022/01/04 08:05:56;;;;;;;5.50;1.23;;;28.50;87.20;;;;;;4972526;28;20046;-72
2022/01/04 08:08:23;;;;;;;5.93;1.88;;;28.50;87.20;;;;;;4971520;28;20080;-72
2022/01/04 08:10:55;;;;;;;6.97;2.17;;;28.50;86.50;;;;;;4971346;28;20034;-73
2022/01/04 08:13:27;;;;;;;10.02;1.17;;;28.20;88.30;;;;;;4970671;28;20463;-73
2022/01/04 08:15:54;;;;;;;6.88;2.25;;;28.10;89.00;;;;;;4971940;28;20050;-72
2022/01/04 08:18:22;;;;;;;5.88;1.52;;;27.90;89.90;;;;;;4971029;28;20023;-71
2022/01/04 08:20:53;;;;;;;7.25;1.73;;;27.80;90.00;;;;;;4970998;28;20041;-72
2022/01/04 08:23:21;;;;;;;11.77;1.25;;;27.50;90.20;;;;;;4971498;28;20118;-73
2022/01/04 08:25:48;;;;;;;7.05;2.15;;;27.30;90.60;;;;;;4971823;28;20372;-75
2022/01/04 08:28:16;;;;;;;7.93;1.77;;;27.20;90.90;;;;;;4971383;28;20031;-75
2022/01/04 08:30:43;;;;;;;9.50;2.30;;;27.10;91.30;;;;;;4971112;28;20109;-74
2022/01/04 08:33:12;;;;;;;9.50;2.28;;;27.10;91.60;;;;;;4971319;28;20027;-75
2022/01/04 08:35:40;;;;;;;9.60;2.70;;;27.10;92.00;;;;;;4972418;28;20034;-74
2022/01/04 08:38:08;;;;;;;11.13;1.92;;;27.00;93.70;;;;;;4971668;28;20118;-71
2022/01/04 08:40:36;;;;;;;9.43;2.00;;;26.90;93.80;;;;;;4970606;28;20070;-73
2022/01/04 08:43:04;;;;;;;8.60;1.70;;;26.90;93.50;;;;;;4969376;28;20027;-72
2022/01/04 08:45:32;;;;;;;10.23;1.50;;;26.80;93.40;;;;;;4969142;28;20030;-73
2022/01/04 08:48:00;;;;;;;10.98;1.70;;;26.70;93.40;;;;;;4970860;28;20038;-75
2022/01/04 08:50:28;;;;;;;8.55;1.40;;;26.60;93.30;;;;;;4970915;28;20022;-72
2022/01/04 08:52:56;;;;;;;9.23;2.13;;;26.60;93.70;;;;;;4970684;28;20077;-73
2022/01/04 08:55:24;;;;;;;10.77;2.78;;;26.50;93.90;;;;;;4969364;28;20387;-76
2022/01/04 08:57:52;;;;;;;8.07;1.90;;;26.40;94.40;;;;;;4969267;28;20034;-72
2022/01/04 09:00:20;;;;;;;10.38;2.47;;;26.30;94.80;;;;;;4969729;28;20072;-72
2022/01/04 09:02:47;;;;;;;10.00;2.33;;;26.20;95.00;;;;;;4970353;28;20031;-76
2022/01/04 09:05:15;;;;;;;9.00;1.60;;;26.10;95.40;;;;;;4970772;28;20035;-74
2022/01/04 09:07:42;;;;;;;11.48;2.03;;;26.10;95.70;;;;;;4969132;28;20031;-71
2022/01/04 09:10:10;;;;;;;9.48;1.60;;;26.00;95.70;;;;;;4968820;28;20506;-70
2022/01/04 09:12:48;;;;;;;7.97;1.60;;;26.00;95.90;;;;;;4970380;28;20027;-73
2022/01/04 09:15:31;;;;;;;6.88;1.65;;;25.90;96.00;;;;;;4970545;28;20093;-72
2022/01/04 09:20:47;;;;;;;11.18;2.05;;;25.90;96.50;;;;;;4970556;28;20387;-71
2022/01/04 09:23:20;;;;;;;11.85;1.60;;;25.90;96.40;;;;;;4970298;28;20053;-72
2022/01/04 09:25:53;;;;;;;8.05;1.60;;;25.90;96.20;;;;;;4970434;28;20106;-73
2022/01/04 09:28:22;;;;;;;6.10;1.67;;;25.80;96.60;;;;;;4970310;28;20101;-72
2022/01/04 09:30:52;;;;;;;6.57;1.08;;;25.80;96.80;;;;;;4969637;28;20443;-73
2022/01/04 09:33:21;;;;;;;10.52;2.55;;;25.80;96.60;;;;;;4973280;28;20037;-73
2022/01/04 09:35:51;;;;;;;10.23;1.25;;;25.80;96.70;;;;;;4974636;28;20027;-72
2022/01/04 09:38:19;;;;;;;10.38;1.27;;;25.80;96.70;;;;;;4969917;28;20431;-72
2022/01/04 09:40:49;;;;;;;8.65;2.13;;;25.80;96.90;;;;;;4970124;28;20502;-73
2022/01/04 09:43:17;;;;;;;9.35;1.85;;;25.70;96.90;;;;;;4969885;28;20511;-72
2022/01/04 09:45:45;;;;;;;9.93;2.03;;;25.70;96.80;;;;;;4970040;28;20031;-72
2022/01/04 09:48:12;;;;;;;8.90;2.33;;;25.60;97.20;;;;;;4969990;28;20435;-71
2022/01/04 09:50:41;;;;;;;5.75;1.60;;;25.50;97.50;;;;;;4970208;28;21278;-71
2022/01/04 09:53:12;;;;;;;10.95;1.40;;;25.50;97.50;;;;;;4966842;28;20041;-74
2022/01/04 09:55:42;;;;;;;9.98;2.03;;;25.50;97.50;;;;;;4969875;28;20035;-74
2022/01/04 09:58:10;;;;;;;11.18;2.00;;;25.60;97.60;;;;;;4969615;28;20113;-73
2022/01/04 10:00:37;;;;;;;8.68;1.83;;;25.50;97.60;;;;;;4969575;28;20034;-73
2022/01/04 10:03:17;;;;;;;8.35;1.90;;;25.60;97.40;;;;;;4969352;28;20455;-72
2022/01/04 10:05:45;;;;;;;7.25;1.55;;;25.60;97.40;;;;;;4969510;28;20031;-73
2022/01/04 10:08:14;;;;;;;12.48;2.38;;;25.70;97.30;;;;;;4969354;28;20081;-73
2022/01/04 10:10:43;;;;;;;10.52;3.15;;;25.60;97.50;;;;;;4969254;28;20029;-71
2022/01/04 10:13:15;;;;;;;8.88;1.58;;;25.50;97.80;;;;;;4969243;28;20035;-70
2022/01/04 10:15:50;;;;;;;7.15;1.75;;;25.40;98.00;;;;;;4969634;28;20023;-72
2022/01/04 10:18:21;;;;;;;12.55;2.33;;;25.40;98.20;;;;;;4969426;28;20031;-74
2022/01/04 10:21:09;;;;;;;8.20;1.80;;;25.40;98.40;;;;;;4969110;28;20035;-74
2022/01/04 10:23:50;;;;;;;17.52;3.40;;;25.40;98.50;;;;;;4961775;28;20055;-74
2022/01/04 10:26:27;;;;;;;8.60;1.98;;;25.40;98.70;;;;;;4967633;28;20026;-74
2022/01/04 10:28:54;;;;;;;8.02;1.20;;;25.40;99.20;;;;;;4969454;28;20416;-75
2022/01/04 10:31:22;;;;;;;9.70;1.38;;;25.40;99.10;;;;;;4967956;28;20030;-72
2022/01/04 10:33:54;;;;;;;9.18;1.75;;;25.40;99.30;;;;;;4968897;28;20154;-72
2022/01/04 10:36:21;;;;;;;;;;;25.30;99.30;;;;;;4969780;28;20372;-71
2022/01/04 10:38:50;;;;;;;9.80;1.40;;;25.30;99.10;;;;;;4968780;28;20016;-71
2022/01/04 10:41:20;;;;;;;12.48;3.00;;;25.20;99.10;;;;;;4968790;28;20062;-71
2022/01/04 10:43:54;;;;;;;8.00;2.22;;;25.20;99.10;;;;;;4951162;28;20046;-72
2022/01/04 10:46:35;;;;;;;8.65;1.52;;;25.20;99.10;;;;;;4965652;28;20121;-70
2022/01/04 10:49:18;;;;;;;8.48;1.90;;;25.20;99.20;;;;;;4968666;28;20043;-72
2022/01/04 10:52:06;;;;;;;10.18;2.03;;;25.20;99.20;;;;;;4968914;28;20035;-72
2022/01/04 10:54:33;;;;;;;11.20;1.20;;;25.10;99.40;;;;;;4968792;28;20101;-71
2022/01/04 10:57:09;;;;;;;5.90;1.65;;;25.10;99.40;;;;;;4968847;28;20025;-71
2022/01/04 10:59:37;;;;;;;6.13;1.42;;;25.10;99.30;;;;;;4968004;28;20138;-73
2022/01/04 11:02:05;;;;;;;6.70;1.30;;;25.10;99.50;;;;;;4968651;28;20484;-72
2022/01/04 11:04:33;;;;;;;10.60;1.70;;;25.10;99.60;;;;;;4968456;28;20121;-73
2022/01/04 11:07:03;;;;;;;11.30;1.30;;;25.10;99.50;;;;;;4968070;28;20027;-70
2022/01/04 11:09:31;;;;;;;9.50;1.80;;;25.00;99.50;;;;;;4967638;28;20054;-73
2022/01/04 11:11:58;;;;;;;6.32;1.17;;;25.10;99.60;;;;;;4968090;28;20031;-70
2022/01/04 11:14:26;;;;;;;7.80;2.05;;;25.00;99.70;;;;;;4967968;28;20047;-73
2022/01/04 11:16:54;;;;;;;8.98;1.67;;;25.10;99.70;;;;;;4967860;28;20027;-74
2022/01/04 11:19:21;;;;;;;12.40;2.55;;;25.00;99.70;;;;;;4967765;28;20542;-70
2022/01/04 11:21:50;;;;;;;11.57;1.77;;;25.00;99.90;;;;;;4968567;28;20014;-72
2022/01/04 11:24:17;;;;;;;9.02;2.42;;;24.90;99.90;;;;;;4968394;28;20082;-75
2022/01/04 11:26:48;;;;;;;8.98;1.52;;;25.00;99.90;;;;;;4968298;28;20034;-72
2022/01/04 11:29:21;;;;;;;9.95;1.60;;;25.00;99.90;;;;;;4968544;28;20053;-76
2022/01/04 11:32:05;;;;;;;7.78;2.00;;;25.00;99.90;;;;;;4967272;28;20542;-72
2022/01/04 11:35:00;;;;;;;8.25;1.83;;;25.00;99.90;;;;;;4970708;28;20404;-72
2022/01/04 11:37:27;;;;;;;8.57;1.13;;;24.90;99.90;;;;;;4968208;28;20431;-73
2022/01/04 11:39:56;;;;;;;4.93;1.13;;;24.90;99.90;;;;;;4965971;28;20023;-72
2022/01/04 11:42:36;;;;;;;6.93;2.00;;;24.90;99.90;;;;;;4967443;28;20026;-71
2022/01/04 11:45:07;;;;;;;6.88;1.20;;;25.00;99.90;;;;;;4967498;28;20066;-73
2022/01/04 11:47:37;;;;;;;9.60;3.20;;;25.00;99.90;;;;;;4968300;28;20030;-72
2022/01/04 11:50:13;;;;;;;8.70;1.60;;;24.90;99.90;;;;;;4967677;28;20468;-72
2022/01/04 11:52:56;;;;;;;7.07;1.52;;;24.90;99.90;;;;;;4967878;28;20027;-73
2022/01/04 11:55:37;;;;;;;5.40;1.02;;;24.90;99.90;;;;;;4967700;28;20393;-74
2022/01/04 11:58:08;;;;;;;7.30;1.05;;;24.90;99.90;;;;;;4968199;28;20035;-73
2022/01/04 12:00:43;;;;;;;6.50;1.00;;;24.90;99.90;;;;;;4968010;28;20479;-73
2022/01/04 12:03:21;;;;;;;6.10;0.93;;;24.90;99.90;;;;;;4968117;28;20117;-76
2022/01/04 12:05:57;;;;;;;5.93;1.17;;;24.90;99.90;;;;;;4967403;28;20027;-73
2022/01/04 12:08:46;;;;;;;4.75;0.88;;;24.90;99.90;;;;;;4967916;28;20038;-73
2022/01/04 12:11:29;;;;;;;5.95;1.40;;;24.90;99.90;;;;;;4967722;28;20476;-73
2022/01/04 12:14:02;;;;;;;5.50;1.10;;;24.80;99.90;;;;;;4967733;28;20039;-71
2022/01/04 12:16:40;;;;;;;6.63;1.35;;;24.80;99.90;;;;;;4970065;28;20022;-70
2022/01/04 12:19:12;;;;;;;8.23;1.52;;;24.80;99.90;;;;;;4971617;28;20085;-73
2022/01/04 12:21:48;;;;;;;6.82;2.00;;;24.70;99.90;;;;;;4971636;28;20031;-72
2022/01/04 12:24:22;;;;;;;7.07;0.90;;;24.70;99.90;;;;;;4970967;28;20046;-74
2022/01/04 12:27:06;;;;;;;5.05;1.40;;;24.70;99.90;;;;;;4970646;28;20018;-69
2022/01/04 12:29:33;;;;;;;5.53;1.02;;;24.60;99.90;;;;;;4971067;28;20046;-73
2022/01/04 12:32:04;;;;;;;7.13;1.88;;;24.60;99.90;;;;;;4971170;28;20019;-72
2022/01/04 12:34:37;;;;;;;6.28;1.55;;;24.60;99.90;;;;;;4971035;28;20043;-75
2022/01/04 12:37:08;;;;;;;7.22;1.50;;;24.60;99.90;;;;;;4970824;28;20026;-74
2022/01/04 12:39:42;;;;;;;5.70;1.67;;;24.60;99.90;;;;;;4970799;28;20391;-70
2022/01/04 12:42:11;;;;;;;8.20;1.70;;;24.60;99.90;;;;;;4970748;28;20074;-73
2022/01/04 12:44:39;;;;;;;9.25;1.65;;;24.50;99.90;;;;;;4970643;28;20015;-72
2022/01/04 12:47:08;;;;;;;6.28;1.70;;;24.50;99.90;;;;;;4971746;28;20038;-72
2022/01/04 12:49:38;;;;;;;8.10;1.20;;;24.60;99.90;;;;;;4970085;28;20023;-72
2022/01/04 12:52:10;;;;;;;9.43;1.77;;;24.60;99.90;;;;;;4969846;28;20084;-71
2022/01/04 12:54:40;;;;;;;7.63;1.63;;;24.60;99.90;;;;;;4971431;28;20118;-75
2022/01/04 12:57:17;;;;;;;10.68;2.47;;;24.60;99.90;;;;;;4971197;28;20019;-71
2022/01/04 12:59:47;;;;;;;9.10;2.25;;;24.60;99.90;;;;;;4962334;28;20035;-69